sensor_id;sensor_type;location;lat;lon;timestamp;pressure;altitude;pressure_sealevel;temperature;humidity
33845;BME280;20145;43.118;25.694;2022-12-07T00:01:09;99639.50;;;6.45;100.00
33845;BME280;20145;43.118;25.694;2022-12-07T00:03:36;99642.94;;;6.45;100.00
33845;BME280;20145;43.118;25.694;2022-12-07T00:08:32;99642.06;;;6.45;100.00
33845;BME280;20145;43.118;25.694;2022-12-07T00:11:01;99638.78;;;6.58;100.00
33845;BME280;20145;43.118;25.694;2022-12-07T00:13:35;99640.53;;;6.64;100.00
33845;BME280;20145;43.118;25.694;2022-12-07T00:16:05;99642.22;;;6.60;100.00
33845;BME280;20145;43.118;25.694;2022-12-07T00:18:40;99643.88;;;6.57;100.00
33845;BME280;20145;43.118;25.694;2022-12-07T00:21:12;99648.78;;;6.29;100.00
33845;BME280;20145;43.118;25.694;2022-12-07T00:23:39;99654.75;;;6.27;100.00
33845;BME280;20145;43.118;25.694;2022-12-07T00:26:08;99659.09;;;6.37;100.00
33845;BME280;20145;43.118;25.694;2022-12-07T00:28:35;99651.50;;;6.47;100.00
33845;BME280;20145;43.118;25.694;2022-12-07T00:31:01;99650.72;;;6.59;100.00
33845;BME280;20145;43.118;25.694;2022-12-07T00:33:27;99656.75;;;6.61;100.00
33845;BME280;20145;43.118;25.694;2022-12-07T00:35:57;99656.03;;;6.76;100.00
33845;BME280;20145;43.118;25.694;2022-12-07T00:38:23;99663.75;;;6.85;100.00
33845;BME280;20145;43.118;25.694;2022-12-07T00:43:41;99665.50;;;6.89;100.00
33845;BME280;20145;43.118;25.694;2022-12-07T00:46:07;99656.16;;;6.99;99.12
33845;BME280;20145;43.118;25.694;2022-12-07T00:48:33;99661.28;;;6.99;99.38
33845;BME280;20145;43.118;25.694;2022-12-07T00:50:58;99657.91;;;7.06;99.93
33845;BME280;20145;43.118;25.694;2022-12-07T00:53:24;99658.72;;;7.01;99.29
33845;BME280;20145;43.118;25.694;2022-12-07T00:55:49;99651.06;;;7.05;99.67
33845;BME280;20145;43.118;25.694;2022-12-07T00:58:16;99647.72;;;7.15;97.97
33845;BME280;20145;43.118;25.694;2022-12-07T01:00:42;99640.88;;;7.19;98.43
33845;BME280;20145;43.118;25.694;2022-12-07T01:03:08;99641.75;;;7.23;98.66
33845;BME280;20145;43.118;25.694;2022-12-07T01:05:34;99649.50;;;7.30;98.22
33845;BME280;20145;43.118;25.694;2022-12-07T01:08:00;99638.38;;;7.33;97.81
33845;BME280;20145;43.118;25.694;2022-12-07T01:10:26;99635.84;;;7.37;98.08
33845;BME280;20145;43.118;25.694;2022-12-07T01:12:51;99629.88;;;7.40;98.35
33845;BME280;20145;43.118;25.694;2022-12-07T01:15:16;99626.47;;;7.49;96.87
33845;BME280;20145;43.118;25.694;2022-12-07T01:17:42;99628.22;;;7.57;96.58
33845;BME280;20145;43.118;25.694;2022-12-07T01:20:07;99631.66;;;7.59;96.60
33845;BME280;20145;43.118;25.694;2022-12-07T01:22:37;99638.53;;;7.62;96.07
33845;BME280;20145;43.118;25.694;2022-12-07T01:25:03;99629.09;;;7.59;95.89
33845;BME280;20145;43.118;25.694;2022-12-07T01:27:28;99627.38;;;7.57;96.54
33845;BME280;20145;43.118;25.694;2022-12-07T01:29:54;99619.63;;;7.52;96.06
33845;BME280;20145;43.118;25.694;2022-12-07T01:32:20;99621.34;;;7.49;96.63
33845;BME280;20145;43.118;25.694;2022-12-07T01:34:47;99630.75;;;7.44;95.96
33845;BME280;20145;43.118;25.694;2022-12-07T01:37:13;99628.22;;;7.51;96.67
33845;BME280;20145;43.118;25.694;2022-12-07T01:39:38;99627.38;;;7.54;95.69
33845;BME280;20145;43.118;25.694;2022-12-07T01:42:04;99625.59;;;7.45;96.84
33845;BME280;20145;43.118;25.694;2022-12-07T01:44:29;99611.91;;;7.40;97.20
33845;BME280;20145;43.118;25.694;2022-12-07T01:46:59;99608.44;;;7.30;97.49
33845;BME280;20145;43.118;25.694;2022-12-07T01:51:59;99604.16;;;7.29;98.44
33845;BME280;20145;43.118;25.694;2022-12-07T01:54:25;99605.91;;;7.38;98.31
33845;BME280;20145;43.118;25.694;2022-12-07T01:56:52;99611.03;;;7.41;97.82
33845;BME280;20145;43.118;25.694;2022-12-07T01:59:19;99611.81;;;7.23;98.42
33845;BME280;20145;43.118;25.694;2022-12-07T02:01:46;99600.66;;;7.13;98.53
33845;BME280;20145;43.118;25.694;2022-12-07T02:04:12;99598.09;;;7.17;99.06
33845;BME280;20145;43.118;25.694;2022-12-07T02:06:37;99610.97;;;7.21;98.45
33845;BME280;20145;43.118;25.694;2022-12-07T02:09:03;99601.53;;;7.17;99.28
33845;BME280;20145;43.118;25.694;2022-12-07T02:11:29;99598.13;;;7.21;99.25
33845;BME280;20145;43.118;25.694;2022-12-07T02:13:54;99599.88;;;7.27;98.32
33845;BME280;20145;43.118;25.694;2022-12-07T02:29:04;99597.19;;;7.05;100.00
33845;BME280;20145;43.118;25.694;2022-12-07T02:31:32;99592.97;;;7.13;99.37
33845;BME280;20145;43.118;25.694;2022-12-07T02:34:03;99592.97;;;7.15;99.42
33845;BME280;20145;43.118;25.694;2022-12-07T02:36:31;99595.56;;;7.18;98.38
33845;BME280;20145;43.118;25.694;2022-12-07T02:39:00;99587.03;;;7.25;98.32
33845;BME280;20145;43.118;25.694;2022-12-07T02:41:29;99587.03;;;7.31;98.83
33845;BME280;20145;43.118;25.694;2022-12-07T02:44:00;99581.91;;;7.33;98.96
33845;BME280;20145;43.118;25.694;2022-12-07T02:46:28;99581.94;;;7.39;99.15
33845;BME280;20145;43.118;25.694;2022-12-07T02:48:55;99580.25;;;7.38;99.41
33845;BME280;20145;43.118;25.694;2022-12-07T02:51:21;99580.22;;;7.43;98.78
33845;BME280;20145;43.118;25.694;2022-12-07T02:53:46;99576.84;;;7.44;98.31
33845;BME280;20145;43.118;25.694;2022-12-07T02:58:45;99562.28;;;7.41;98.20
33845;BME280;20145;43.118;25.694;2022-12-07T03:01:20;99568.28;;;7.48;98.35
33845;BME280;20145;43.118;25.694;2022-12-07T03:03:56;99560.56;;;7.42;98.45
33845;BME280;20145;43.118;25.694;2022-12-07T03:09:23;99577.72;;;7.52;97.86
33845;BME280;20145;43.118;25.694;2022-12-07T03:11:52;99581.94;;;7.37;97.38
33845;BME280;20145;43.118;25.694;2022-12-07T03:14:25;99573.41;;;7.40;97.78
33845;BME280;20145;43.118;25.694;2022-12-07T03:17:05;99565.66;;;7.34;98.12
33845;BME280;20145;43.118;25.694;2022-12-07T03:19:37;99575.97;;;7.38;98.19
33845;BME280;20145;43.118;25.694;2022-12-07T03:22:05;99576.81;;;7.39;97.99
33845;BME280;20145;43.118;25.694;2022-12-07T03:24:39;99572.56;;;7.44;97.26
33845;BME280;20145;43.118;25.694;2022-12-07T03:27:15;99572.53;;;7.41;98.00
33845;BME280;20145;43.118;25.694;2022-12-07T03:29:44;99577.69;;;7.44;97.62
33845;BME280;20145;43.118;25.694;2022-12-07T03:32:14;99573.41;;;7.51;96.72
33845;BME280;20145;43.118;25.694;2022-12-07T03:40:40;99570.88;;;7.62;97.18
33845;BME280;20145;43.118;25.694;2022-12-07T03:43:15;99569.19;;;7.67;96.57
33845;BME280;20145;43.118;25.694;2022-12-07T03:53:34;99560.66;;;7.77;96.12
33845;BME280;20145;43.118;25.694;2022-12-07T03:56:00;99555.50;;;7.75;95.23
33845;BME280;20145;43.118;25.694;2022-12-07T03:58:26;99550.38;;;7.77;95.70
33845;BME280;20145;43.118;25.694;2022-12-07T04:01:10;99547.81;;;7.80;96.34
33845;BME280;20145;43.118;25.694;2022-12-07T04:03:41;99544.38;;;7.78;95.39
33845;BME280;20145;43.118;25.694;2022-12-07T04:06:25;99550.38;;;7.74;95.88
33845;BME280;20145;43.118;25.694;2022-12-07T04:12:03;99540.97;;;7.71;95.86
33845;BME280;20145;43.118;25.694;2022-12-07T04:14:28;99534.97;;;7.68;94.66
33845;BME280;20145;43.118;25.694;2022-12-07T04:16:55;99534.09;;;7.70;95.71
33845;BME280;20145;43.118;25.694;2022-12-07T04:19:24;99535.81;;;7.74;95.58
33845;BME280;20145;43.118;25.694;2022-12-07T04:21:50;99525.56;;;7.74;95.59
33845;BME280;20145;43.118;25.694;2022-12-07T04:24:15;99528.13;;;7.71;94.07
33845;BME280;20145;43.118;25.694;2022-12-07T04:26:43;99536.66;;;7.69;94.09
33845;BME280;20145;43.118;25.694;2022-12-07T04:29:09;99540.03;;;7.51;95.37
33845;BME280;20145;43.118;25.694;2022-12-07T04:31:35;99538.25;;;7.25;96.72
33845;BME280;20145;43.118;25.694;2022-12-07T04:34:01;99528.00;;;7.22;96.40
33845;BME280;20145;43.118;25.694;2022-12-07T04:36:27;99535.69;;;7.25;97.05
33845;BME280;20145;43.118;25.694;2022-12-07T04:38:53;99532.22;;;7.11;97.66
33845;BME280;20145;43.118;25.694;2022-12-07T04:41:20;99536.53;;;7.15;97.22
33845;BME280;20145;43.118;25.694;2022-12-07T04:44:04;99540.81;;;7.19;97.10
33845;BME280;20145;43.118;25.694;2022-12-07T04:46:36;99535.66;;;7.10;96.74
33845;BME280;20145;43.118;25.694;2022-12-07T04:49:14;99532.22;;;7.11;96.93
33845;BME280;20145;43.118;25.694;2022-12-07T04:51:49;99527.06;;;6.99;97.04
33845;BME280;20145;43.118;25.694;2022-12-07T04:54:15;99524.47;;;6.97;97.36
33845;BME280;20145;43.118;25.694;2022-12-07T04:56:41;99529.63;;;7.02;97.19
33845;BME280;20145;43.118;25.694;2022-12-07T04:59:08;99525.38;;;7.07;96.91
33845;BME280;20145;43.118;25.694;2022-12-07T05:01:35;99527.09;;;7.05;97.09
33845;BME280;20145;43.118;25.694;2022-12-07T05:04:00;99527.09;;;7.08;97.60
33845;BME280;20145;43.118;25.694;2022-12-07T05:06:26;99521.97;;;7.14;97.30
33845;BME280;20145;43.118;25.694;2022-12-07T05:08:51;99524.56;;;7.12;96.84
33845;BME280;20145;43.118;25.694;2022-12-07T05:11:17;99519.41;;;7.11;97.03
33845;BME280;20145;43.118;25.694;2022-12-07T05:14:02;99520.22;;;7.02;95.95
33845;BME280;20145;43.118;25.694;2022-12-07T05:16:27;99515.94;;;6.97;97.31
33845;BME280;20145;43.118;25.694;2022-12-07T05:18:53;99520.22;;;7.04;97.14
33845;BME280;20145;43.118;25.694;2022-12-07T05:21:18;99526.25;;;7.07;97.21
33845;BME280;20145;43.118;25.694;2022-12-07T05:23:44;99525.38;;;7.11;96.80
33845;BME280;20145;43.118;25.694;2022-12-07T05:26:09;99529.69;;;7.17;97.01
33845;BME280;20145;43.118;25.694;2022-12-07T05:28:35;99521.97;;;7.17;96.59
33845;BME280;20145;43.118;25.694;2022-12-07T05:31:00;99523.69;;;7.20;96.00
33845;BME280;20145;43.118;25.694;2022-12-07T05:33:26;99526.28;;;7.18;96.10
33845;BME280;20145;43.118;25.694;2022-12-07T05:35:51;99528.81;;;7.12;96.55
33845;BME280;20145;43.118;25.694;2022-12-07T05:38:16;99527.94;;;7.08;96.62
33845;BME280;20145;43.118;25.694;2022-12-07T05:40:42;99533.09;;;7.10;96.31
33845;BME280;20145;43.118;25.694;2022-12-07T05:43:07;99529.66;;;7.11;96.04
33845;BME280;20145;43.118;25.694;2022-12-07T05:45:33;99536.50;;;7.04;96.05
33845;BME280;20145;43.118;25.694;2022-12-07T05:47:58;99544.13;;;6.98;95.92
33845;BME280;20145;43.118;25.694;2022-12-07T05:50:23;99534.69;;;6.85;96.31
33845;BME280;20145;43.118;25.694;2022-12-07T05:52:49;99540.66;;;6.79;97.72
33845;BME280;20145;43.118;25.694;2022-12-07T05:55:14;99535.53;;;6.87;97.81
33845;BME280;20145;43.118;25.694;2022-12-07T05:57:40;99539.84;;;6.88;97.19
33845;BME280;20145;43.118;25.694;2022-12-07T06:00:25;99542.41;;;6.92;98.10
33845;BME280;20145;43.118;25.694;2022-12-07T06:02:50;99534.75;;;6.96;97.35
33845;BME280;20145;43.118;25.694;2022-12-07T06:05:16;99534.78;;;7.08;98.45
33845;BME280;20145;43.118;25.694;2022-12-07T06:07:41;99540.78;;;7.14;97.74
33845;BME280;20145;43.118;25.694;2022-12-07T06:10:07;99539.94;;;7.14;97.58
33845;BME280;20145;43.118;25.694;2022-12-07T06:12:32;99553.63;;;7.18;97.32
33845;BME280;20145;43.118;25.694;2022-12-07T06:15:03;99545.13;;;7.28;97.61
33845;BME280;20145;43.118;25.694;2022-12-07T06:17:28;99552.00;;;7.35;97.34
33845;BME280;20145;43.118;25.694;2022-12-07T06:19:54;99551.16;;;7.37;96.89
33845;BME280;20145;43.118;25.694;2022-12-07T06:22:19;99545.16;;;7.38;96.24
33845;BME280;20145;43.118;25.694;2022-12-07T06:24:45;99555.44;;;7.45;95.80
33845;BME280;20145;43.118;25.694;2022-12-07T06:27:10;99552.03;;;7.55;96.30
33845;BME280;20145;43.118;25.694;2022-12-07T06:29:36;99545.19;;;7.52;94.80
33845;BME280;20145;43.118;25.694;2022-12-07T06:32:02;99540.94;;;7.64;95.28
33845;BME280;20145;43.118;25.694;2022-12-07T06:34:27;99537.53;;;7.72;95.71
33845;BME280;20145;43.118;25.694;2022-12-07T06:36:53;99546.06;;;7.70;95.20
33845;BME280;20145;43.118;25.694;2022-12-07T06:39:21;99547.78;;;7.66;94.67
33845;BME280;20145;43.118;25.694;2022-12-07T06:41:46;99550.38;;;7.74;94.50
33845;BME280;20145;43.118;25.694;2022-12-07T06:44:12;99546.97;;;7.82;95.03
33845;BME280;20145;43.118;25.694;2022-12-07T06:46:37;99557.25;;;7.86;94.35
33845;BME280;20145;43.118;25.694;2022-12-07T06:49:03;99550.41;;;7.85;94.45
33845;BME280;20145;43.118;25.694;2022-12-07T06:51:29;99546.97;;;7.92;94.03
33845;BME280;20145;43.118;25.694;2022-12-07T06:53:55;99547.84;;;7.95;93.72
33845;BME280;20145;43.118;25.694;2022-12-07T06:56:20;99539.25;;;7.76;94.33
33845;BME280;20145;43.118;25.694;2022-12-07T06:58:45;99533.25;;;7.77;93.95
33845;BME280;20145;43.118;25.694;2022-12-07T07:01:11;99541.81;;;7.73;93.67
33845;BME280;20145;43.118;25.694;2022-12-07T07:03:37;99537.53;;;7.63;93.90
33845;BME280;20145;43.118;25.694;2022-12-07T07:06:03;99545.19;;;7.51;95.31
33845;BME280;20145;43.118;25.694;2022-12-07T07:08:28;99546.03;;;7.53;94.90
33845;BME280;20145;43.118;25.694;2022-12-07T07:10:54;99537.50;;;7.57;95.18
33845;BME280;20145;43.118;25.694;2022-12-07T07:13:19;99546.03;;;7.50;94.89
33845;BME280;20145;43.118;25.694;2022-12-07T07:15:44;99559.75;;;7.56;95.57
33845;BME280;20145;43.118;25.694;2022-12-07T07:18:10;99563.13;;;7.48;95.46
33845;BME280;20145;43.118;25.694;2022-12-07T07:20:36;99560.59;;;7.52;95.56
33845;BME280;20145;43.118;25.694;2022-12-07T07:23:01;99570.03;;;7.55;95.40
33845;BME280;20145;43.118;25.694;2022-12-07T07:25:27;99560.59;;;7.58;95.46
33845;BME280;20145;43.118;25.694;2022-12-07T07:27:52;99562.34;;;7.67;94.67
33845;BME280;20145;43.118;25.694;2022-12-07T07:30:18;99572.59;;;7.67;95.08
33845;BME280;20145;43.118;25.694;2022-12-07T07:32:43;99571.75;;;7.70;94.20
33845;BME280;20145;43.118;25.694;2022-12-07T07:35:08;99572.63;;;7.73;94.00
33845;BME280;20145;43.118;25.694;2022-12-07T07:37:34;99564.06;;;7.80;94.43
33845;BME280;20145;43.118;25.694;2022-12-07T07:39:59;99571.78;;;7.83;93.65
33845;BME280;20145;43.118;25.694;2022-12-07T07:42:25;99569.25;;;7.99;92.19
33845;BME280;20145;43.118;25.694;2022-12-07T07:44:52;99563.22;;;7.86;92.89
33845;BME280;20145;43.118;25.694;2022-12-07T07:47:18;99553.81;;;7.94;92.21
33845;BME280;20145;43.118;25.694;2022-12-07T07:49:43;99555.53;;;8.03;92.34
33845;BME280;20145;43.118;25.694;2022-12-07T07:52:10;99552.13;;;8.24;92.10
33845;BME280;20145;43.118;25.694;2022-12-07T07:54:35;99560.66;;;8.34;90.96
33845;BME280;20145;43.118;25.694;2022-12-07T07:57:00;99557.28;;;8.41;91.09
33845;BME280;20145;43.118;25.694;2022-12-07T07:59:26;99550.41;;;8.41;90.02
33845;BME280;20145;43.118;25.694;2022-12-07T08:01:51;99549.56;;;8.29;91.96
33845;BME280;20145;43.118;25.694;2022-12-07T08:04:16;99553.00;;;8.43;91.99
33845;BME280;20145;43.118;25.694;2022-12-07T08:06:42;99554.66;;;8.64;90.17
33845;BME280;20145;43.118;25.694;2022-12-07T08:09:08;99557.22;;;8.71;90.29
33845;BME280;20145;43.118;25.694;2022-12-07T08:11:33;99556.38;;;8.63;89.51
33845;BME280;20145;43.118;25.694;2022-12-07T08:13:59;99553.00;;;8.54;89.64
33845;BME280;20145;43.118;25.694;2022-12-07T08:16:24;99553.00;;;8.41;90.74
33845;BME280;20145;43.118;25.694;2022-12-07T08:18:49;99552.13;;;8.59;90.73
33845;BME280;20145;43.118;25.694;2022-12-07T08:21:15;99552.94;;;8.75;90.03
33845;BME280;20145;43.118;25.694;2022-12-07T08:23:41;99551.19;;;8.83;89.73
33845;BME280;20145;43.118;25.694;2022-12-07T08:26:07;99552.00;;;9.07;89.42
33845;BME280;20145;43.118;25.694;2022-12-07T08:28:33;99561.34;;;9.29;88.14
33845;BME280;20145;43.118;25.694;2022-12-07T08:30:59;99563.00;;;9.36;86.55
33845;BME280;20145;43.118;25.694;2022-12-07T08:33:24;99557.88;;;9.40;86.00
33845;BME280;20145;43.118;25.694;2022-12-07T08:35:50;99556.22;;;9.26;87.08
33845;BME280;20145;43.118;25.694;2022-12-07T08:38:15;99557.16;;;9.04;87.40
33845;BME280;20145;43.118;25.694;2022-12-07T08:40:40;99554.66;;;8.73;88.28
33845;BME280;20145;43.118;25.694;2022-12-07T08:43:06;99546.94;;;8.75;88.58
33845;BME280;20145;43.118;25.694;2022-12-07T08:45:31;99555.56;;;8.57;89.72
33845;BME280;20145;43.118;25.694;2022-12-07T08:48:04;99547.78;;;8.77;89.13
33845;BME280;20145;43.118;25.694;2022-12-07T08:50:31;99550.31;;;8.97;89.28
33845;BME280;20145;43.118;25.694;2022-12-07T08:52:57;99553.66;;;9.17;88.18
33845;BME280;20145;43.118;25.694;2022-12-07T08:55:24;99540.81;;;9.15;86.97
33845;BME280;20145;43.118;25.694;2022-12-07T08:57:49;99545.94;;;9.19;86.97
33845;BME280;20145;43.118;25.694;2022-12-07T09:00:15;99539.03;;;9.30;86.98
33845;BME280;20145;43.118;25.694;2022-12-07T09:02:43;99537.25;;;9.41;86.84
33845;BME280;20145;43.118;25.694;2022-12-07T09:05:08;99533.00;;;9.34;86.13
33845;BME280;20145;43.118;25.694;2022-12-07T09:07:34;99531.38;;;9.08;86.53
33845;BME280;20145;43.118;25.694;2022-12-07T09:10:00;99527.16;;;8.97;88.39
33845;BME280;20145;43.118;25.694;2022-12-07T09:12:26;99528.13;;;8.60;90.08
33845;BME280;20145;43.118;25.694;2022-12-07T09:14:51;99519.53;;;8.63;89.82
33845;BME280;20145;43.118;25.694;2022-12-07T09:17:16;99522.94;;;8.73;89.35
33845;BME280;20145;43.118;25.694;2022-12-07T09:19:42;99516.91;;;8.83;89.52
33845;BME280;20145;43.118;25.694;2022-12-07T09:22:07;99510.91;;;8.75;89.04
33845;BME280;20145;43.118;25.694;2022-12-07T09:24:33;99499.69;;;9.06;89.69
33845;BME280;20145;43.118;25.694;2022-12-07T09:26:59;99500.38;;;9.34;87.76
33845;BME280;20145;43.118;25.694;2022-12-07T09:29:24;99492.66;;;9.33;86.49
33845;BME280;20145;43.118;25.694;2022-12-07T09:31:50;99496.97;;;9.28;87.83
33845;BME280;20145;43.118;25.694;2022-12-07T09:34:15;99491.88;;;9.19;87.75
33845;BME280;20145;43.118;25.694;2022-12-07T09:36:41;99492.00;;;8.86;88.95
33845;BME280;20145;43.118;25.694;2022-12-07T09:39:07;99492.88;;;8.93;88.42
33845;BME280;20145;43.118;25.694;2022-12-07T09:41:33;99484.31;;;8.76;88.74
33845;BME280;20145;43.118;25.694;2022-12-07T09:44:04;99476.56;;;8.96;88.91
33845;BME280;20145;43.118;25.694;2022-12-07T09:46:31;99478.25;;;8.92;87.79
33845;BME280;20145;43.118;25.694;2022-12-07T09:48:59;99482.63;;;8.79;88.90
33845;BME280;20145;43.118;25.694;2022-12-07T09:51:25;99487.72;;;8.88;88.65
33845;BME280;20145;43.118;25.694;2022-12-07T09:53:54;99475.69;;;8.92;88.62
33845;BME280;20145;43.118;25.694;2022-12-07T09:56:21;99475.63;;;9.07;88.04
33845;BME280;20145;43.118;25.694;2022-12-07T09:58:47;99465.31;;;9.09;87.74
33845;BME280;20145;43.118;25.694;2022-12-07T10:01:17;99467.84;;;9.21;87.63
33845;BME280;20145;43.118;25.694;2022-12-07T10:03:53;99471.09;;;9.51;87.38
33845;BME280;20145;43.118;25.694;2022-12-07T10:06:19;99458.78;;;9.88;86.14
33845;BME280;20145;43.118;25.694;2022-12-07T10:08:45;99444.28;;;9.76;85.03
33845;BME280;20145;43.118;25.694;2022-12-07T10:11:11;99443.34;;;9.85;84.81
33845;BME280;20145;43.118;25.694;2022-12-07T10:13:40;99441.78;;;9.64;85.74
33845;BME280;20145;43.118;25.694;2022-12-07T10:16:26;99434.13;;;9.59;87.20
33845;BME280;20145;43.118;25.694;2022-12-07T10:18:53;99426.28;;;9.73;87.49
33845;BME280;20145;43.118;25.694;2022-12-07T10:21:25;99431.16;;;10.04;85.06
33845;BME280;20145;43.118;25.694;2022-12-07T10:24:03;99423.56;;;9.90;85.07
33845;BME280;20145;43.118;25.694;2022-12-07T10:26:33;99423.38;;;10.07;84.49
33845;BME280;20145;43.118;25.694;2022-12-07T10:28:59;99431.38;;;9.79;85.55
33845;BME280;20145;43.118;25.694;2022-12-07T10:31:26;99424.50;;;9.80;85.34
33845;BME280;20145;43.118;25.694;2022-12-07T10:38:46;99426.25;;;9.76;85.98
33845;BME280;20145;43.118;25.694;2022-12-07T10:41:12;99421.91;;;9.81;85.38
33845;BME280;20145;43.118;25.694;2022-12-07T10:43:37;99419.22;;;9.95;85.86
33845;BME280;20145;43.118;25.694;2022-12-07T10:51:17;99399.16;;;10.22;83.70
33845;BME280;20145;43.118;25.694;2022-12-07T10:53:57;99400.84;;;10.26;84.53
33845;BME280;20145;43.118;25.694;2022-12-07T11:01:41;99396.84;;;9.99;84.54
33845;BME280;20145;43.118;25.694;2022-12-07T11:06:48;99389.09;;;9.99;84.83
33845;BME280;20145;43.118;25.694;2022-12-07T11:09:25;99386.53;;;9.97;85.15
33845;BME280;20145;43.118;25.694;2022-12-07T11:11:59;99383.94;;;10.00;84.07
33845;BME280;20145;43.118;25.694;2022-12-07T11:15:10;99378.69;;;10.08;84.64
33845;BME280;20145;43.118;25.694;2022-12-07T11:17:17;99366.69;;;10.07;84.01
33845;BME280;20145;43.118;25.694;2022-12-07T11:22:36;99369.00;;;10.33;85.12
33845;BME280;20145;43.118;25.694;2022-12-07T11:30:23;99350.50;;;10.70;83.76
33845;BME280;20145;43.118;25.694;2022-12-07T11:35:38;99349.56;;;10.76;83.20
33845;BME280;20145;43.118;25.694;2022-12-07T11:38:15;99339.72;;;11.01;83.08
33845;BME280;20145;43.118;25.694;2022-12-07T11:40:43;99348.06;;;11.20;82.63
33845;BME280;20145;43.118;25.694;2022-12-07T11:45:52;99340.88;;;11.35;81.49
33845;BME280;20145;43.118;25.694;2022-12-07T11:50:46;99324.69;;;11.26;81.13
33845;BME280;20145;43.118;25.694;2022-12-07T11:55:51;99327.06;;;11.38;80.25
33845;BME280;20145;43.118;25.694;2022-12-07T12:00:43;99319.66;;;11.20;81.01
33845;BME280;20145;43.118;25.694;2022-12-07T12:03:13;99316.22;;;11.16;82.79
33845;BME280;20145;43.118;25.694;2022-12-07T12:05:41;99315.16;;;11.31;83.03
33845;BME280;20145;43.118;25.694;2022-12-07T12:08:16;99311.69;;;11.32;81.89
33845;BME280;20145;43.118;25.694;2022-12-07T12:16:04;99296.72;;;11.51;81.35
33845;BME280;20145;43.118;25.694;2022-12-07T12:21:04;99292.16;;;11.65;80.31
33845;BME280;20145;43.118;25.694;2022-12-07T12:23:48;99289.44;;;11.73;79.55
33845;BME280;20145;43.118;25.694;2022-12-07T12:26:19;99288.34;;;11.83;79.78
33845;BME280;20145;43.118;25.694;2022-12-07T12:28:56;99281.31;;;11.93;79.14
33845;BME280;20145;43.118;25.694;2022-12-07T12:33:48;99280.44;;;11.94;77.99
33845;BME280;20145;43.118;25.694;2022-12-07T12:41:56;99281.75;;;11.70;80.45
33845;BME280;20145;43.118;25.694;2022-12-07T12:51:49;99276.41;;;11.77;80.80
33845;BME280;20145;43.118;25.694;2022-12-07T12:54:19;99277.28;;;11.76;80.73
33845;BME280;20145;43.118;25.694;2022-12-07T12:59:36;99268.72;;;11.74;81.91
33845;BME280;20145;43.118;25.694;2022-12-07T13:04:52;99267.72;;;11.81;81.13
33845;BME280;20145;43.118;25.694;2022-12-07T13:10:02;99264.34;;;11.78;80.48
33845;BME280;20145;43.118;25.694;2022-12-07T13:12:27;99271.22;;;11.77;80.80
33845;BME280;20145;43.118;25.694;2022-12-07T13:14:55;99276.47;;;11.74;82.34
33845;BME280;20145;43.118;25.694;2022-12-07T13:20:05;99281.41;;;11.88;81.03
33845;BME280;20145;43.118;25.694;2022-12-07T13:25:30;99271.75;;;11.98;81.35
33845;BME280;20145;43.118;25.694;2022-12-07T13:27:51;99278.63;;;11.99;80.78
33845;BME280;20145;43.118;25.694;2022-12-07T13:30:19;99277.91;;;11.91;80.62
33845;BME280;20145;43.118;25.694;2022-12-07T13:32:56;99276.22;;;11.88;82.01
33845;BME280;20145;43.118;25.694;2022-12-07T13:35:32;99275.41;;;11.84;82.40
33845;BME280;20145;43.118;25.694;2022-12-07T13:37:58;99268.59;;;11.80;81.41
33845;BME280;20145;43.118;25.694;2022-12-07T13:40:24;99271.28;;;11.76;82.19
33845;BME280;20145;43.118;25.694;2022-12-07T13:43:00;99268.78;;;11.71;80.93
33845;BME280;20145;43.118;25.694;2022-12-07T13:45:28;99273.16;;;11.66;82.18
33845;BME280;20145;43.118;25.694;2022-12-07T13:48:35;99262.13;;;11.58;81.32
33845;BME280;20145;43.118;25.694;2022-12-07T13:50:58;99263.94;;;11.54;82.53
33845;BME280;20145;43.118;25.694;2022-12-07T13:53:24;99259.00;;;11.42;83.11
33845;BME280;20145;43.118;25.694;2022-12-07T13:55:53;99265.13;;;11.35;81.89
33845;BME280;20145;43.118;25.694;2022-12-07T13:58:18;99260.97;;;11.26;82.53
33845;BME280;20145;43.118;25.694;2022-12-07T14:00:44;99258.41;;;11.25;83.96
33845;BME280;20145;43.118;25.694;2022-12-07T14:05:38;99267.22;;;11.14;83.86
33845;BME280;20145;43.118;25.694;2022-12-07T14:08:05;99260.44;;;11.09;82.98
33845;BME280;20145;43.118;25.694;2022-12-07T14:10:34;99263.00;;;11.09;83.22
33845;BME280;20145;43.118;25.694;2022-12-07T14:13:03;99263.88;;;11.08;83.80
33845;BME280;20145;43.118;25.694;2022-12-07T14:15:45;99261.28;;;11.08;84.31
33845;BME280;20145;43.118;25.694;2022-12-07T14:18:24;99257.13;;;11.01;84.81
33845;BME280;20145;43.118;25.694;2022-12-07T14:20:50;99261.56;;;10.91;85.39
33845;BME280;20145;43.118;25.694;2022-12-07T14:23:22;99256.50;;;10.83;85.18
33845;BME280;20145;43.118;25.694;2022-12-07T14:25:49;99248.91;;;10.76;85.89
33845;BME280;20145;43.118;25.694;2022-12-07T14:31:11;99250.09;;;10.53;85.72
33845;BME280;20145;43.118;25.694;2022-12-07T14:33:37;99250.31;;;10.39;86.44
33845;BME280;20145;43.118;25.694;2022-12-07T14:36:03;99241.84;;;10.28;87.47
33845;BME280;20145;43.118;25.694;2022-12-07T14:38:28;99244.47;;;10.22;87.72
33845;BME280;20145;43.118;25.694;2022-12-07T14:40:54;99248.91;;;10.11;87.88
33845;BME280;20145;43.118;25.694;2022-12-07T14:43:40;99247.31;;;10.03;86.89
33845;BME280;20145;43.118;25.694;2022-12-07T14:46:05;99237.13;;;9.91;87.13
33845;BME280;20145;43.118;25.694;2022-12-07T14:48:30;99238.13;;;9.81;87.11
33845;BME280;20145;43.118;25.694;2022-12-07T14:50:56;99238.22;;;9.73;88.41
33845;BME280;20145;43.118;25.694;2022-12-07T14:53:22;99246.09;;;9.58;87.74
33845;BME280;20145;43.118;25.694;2022-12-07T14:55:51;99239.38;;;9.43;88.36
33845;BME280;20145;43.118;25.694;2022-12-07T14:58:17;99236.97;;;9.29;89.93
33845;BME280;20145;43.118;25.694;2022-12-07T15:00:43;99235.34;;;9.18;90.52
33845;BME280;20145;43.118;25.694;2022-12-07T15:03:08;99236.28;;;9.10;88.69
33845;BME280;20145;43.118;25.694;2022-12-07T15:05:34;99244.94;;;8.97;89.50